Time;durP1;ratioP1;P1;durP2;ratioP2;P2;SDS_P1;SDS_P2;PMS_P1;PMS_P2;Temp;Humidity;BMP_temperature;BMP_pressure;BME280_temperature;BME280_humidity;BME280_pressure;Samples;Min_cycle;Max_cycle;Signal;HPM_P1;HPM_P2
2021/03/01 00:02:23;;;;;;;15.75;6.20;;;3.20;68.10;;;;;;5026635;28;19905;-70
2021/03/01 00:04:49;;;;;;;;;;;3.20;68.00;;;;;;5026458;28;20037;-70
2021/03/01 00:07:15;;;;;;;16.73;7.03;;;3.20;68.50;;;;;;5026404;28;19912;-70
2021/03/01 00:09:40;;;;;;;;;;;3.10;68.90;;;;;;5026343;28;20761;-71
2021/03/01 00:12:06;;;;;;;16.67;7.30;;;3.10;68.80;;;;;;5025017;28;20328;-71
2021/03/01 00:14:31;;;;;;;;;;;3.40;68.30;;;;;;5026722;28;20446;-71
2021/03/01 00:16:57;;;;;;;15.23;5.85;;;3.40;68.40;;;;;;5024692;28;19905;-70
2021/03/01 00:19:22;;;;;;;13.82;7.00;;;3.40;68.00;;;;;;5025337;28;20520;-71
2021/03/01 00:21:48;;;;;;;24.67;6.50;;;3.40;68.00;;;;;;5024732;28;20401;-70
2021/03/01 00:24:14;;;;;;;21.38;7.20;;;3.40;68.20;;;;;;5024914;28;20462;-69
2021/03/01 00:26:39;;;;;;;16.73;5.82;;;3.40;68.50;;;;;;5024394;28;20680;-71
2021/03/01 00:29:05;;;;;;;;;;;3.30;68.80;;;;;;5026695;28;20143;-70
2021/03/01 00:31:30;;;;;;;18.90;9.15;;;3.20;69.30;;;;;;5025892;28;19974;-71
2021/03/01 00:33:56;;;;;;;;;;;3.10;69.60;;;;;;5026731;28;20033;-70
2021/03/01 00:36:22;;;;;;;17.63;8.98;;;2.90;70.10;;;;;;5025793;28;19920;-70
2021/03/01 00:38:47;;;;;;;;;;;2.80;70.70;;;;;;5026315;28;20029;-71
2021/03/01 00:41:13;;;;;;;15.90;6.90;;;2.80;71.20;;;;;;5024909;28;19905;-70
2021/03/01 00:43:38;;;;;;;12.43;6.13;;;2.70;71.10;;;;;;5025980;28;20057;-71
2021/03/01 00:46:04;;;;;;;;;;;2.60;70.10;;;;;;5025224;28;20037;-69
2021/03/01 00:48:30;;;;;;;11.60;5.15;;;2.50;70.20;;;;;;5024952;28;19909;-70
2021/03/01 00:50:55;;;;;;;;;;;2.50;70.50;;;;;;5026266;28;20479;-70
2021/03/01 00:53:25;;;;;;;10.48;4.30;;;2.40;71.00;;;;;;5024532;28;19909;-71
2021/03/01 00:55:52;;;;;;;9.23;3.75;;;2.50;70.40;;;;;;5025821;28;20108;-71
2021/03/01 00:58:18;;;;;;;10.98;4.55;;;2.50;69.00;;;;;;5025985;28;20124;-70
2021/03/01 01:00:49;;;;;;;12.88;4.35;;;2.50;68.90;;;;;;5024589;28;20087;-71
2021/03/01 01:03:15;;;;;;;8.43;3.10;;;2.50;68.10;;;;;;5028632;28;20033;-71
2021/03/01 01:05:41;;;;;;;7.78;3.65;;;2.50;67.80;;;;;;5028014;28;20029;-71
2021/03/01 01:08:07;;;;;;;;;;;2.50;67.60;;;;;;5028875;28;20489;-71
2021/03/01 01:10:33;;;;;;;9.02;3.60;;;2.40;68.30;;;;;;5028355;28;19962;-71
2021/03/01 01:13:00;;;;;;;10.52;3.65;;;2.30;69.00;;;;;;5029608;28;20103;-70
2021/03/01 01:15:25;;;;;;;7.22;3.30;;;2.20;69.30;;;;;;5029783;28;20032;-71
2021/03/01 01:17:51;;;;;;;;;;;2.10;69.90;;;;;;5030117;28;20025;-71
2021/03/01 01:20:17;;;;;;;10.80;4.32;;;2.10;70.50;;;;;;5029214;28;20675;-70
2021/03/01 01:22:43;;;;;;;10.32;4.28;;;2.00;70.90;;;;;;5029013;28;20037;-71
2021/03/01 01:25:10;;;;;;;;;;;2.00;71.20;;;;;;5029913;28;20581;-71
2021/03/01 01:27:36;;;;;;;19.23;8.73;;;2.10;70.70;;;;;;5027717;28;19916;-71
2021/03/01 01:30:02;;;;;;;;;;;2.30;70.50;;;;;;5028365;28;20029;-70
2021/03/01 01:32:28;;;;;;;12.90;5.60;;;2.30;70.90;;;;;;5029483;28;19932;-71
2021/03/01 01:34:53;;;;;;;;;;;2.30;70.80;;;;;;5029185;28;20482;-72
2021/03/01 01:37:19;;;;;;;10.98;4.80;;;2.20;70.90;;;;;;5027547;28;19943;-71
2021/03/01 01:39:45;;;;;;;11.23;4.60;;;2.20;71.30;;;;;;5027707;28;20405;-71
2021/03/01 01:42:10;;;;;;;;;;;2.20;71.00;;;;;;5029397;28;20029;-71
2021/03/01 01:44:36;;;;;;;11.05;4.95;;;2.30;69.80;;;;;;5028944;28;19917;-71
2021/03/01 01:47:02;;;;;;;;;;;2.20;70.10;;;;;;5027907;28;20026;-71
2021/03/01 01:49:27;;;;;;;13.10;6.97;;;2.20;70.70;;;;;;5028921;28;20016;-71
2021/03/01 01:51:53;;;;;;;;;;;2.10;70.90;;;;;;5028651;28;20090;-71
2021/03/01 01:54:19;;;;;;;12.30;5.00;;;2.00;71.50;;;;;;5028794;28;20118;-71
2021/03/01 01:56:44;;;;;;;;;;;2.00;70.30;;;;;;5028526;28;20021;-71
2021/03/01 01:59:10;;;;;;;10.00;3.63;;;2.10;70.10;;;;;;5028875;28;20289;-69
2021/03/01 02:01:36;;;;;;;12.73;6.32;;;2.10;69.90;;;;;;5029085;28;20037;-71
2021/03/01 02:04:08;;;;;;;13.95;6.47;;;2.10;70.40;;;;;;5028344;28;20037;-70
2021/03/01 02:06:42;;;;;;;16.17;7.15;;;2.10;71.00;;;;;;5028115;28;20140;-71
2021/03/01 02:09:14;;;;;;;14.25;5.15;;;2.00;70.70;;;;;;5028537;28;20348;-72
2021/03/01 02:11:45;;;;;;;15.65;6.82;;;2.10;72.10;;;;;;5028618;28;20026;-71
2021/03/01 02:14:32;;;;;;;13.40;6.38;;;2.30;71.20;;;;;;5028616;28;20083;-70
2021/03/01 02:16:58;;;;;;;12.15;6.00;;;2.30;70.90;;;;;;5028674;28;20061;-71
2021/03/01 02:19:24;;;;;;;;;;;2.20;71.10;;;;;;5029003;28;20705;-71
2021/03/01 02:21:49;;;;;;;16.17;6.07;;;2.20;71.60;;;;;;5027835;28;19906;-71
2021/03/01 02:24:17;;;;;;;;;;;2.10;71.60;;;;;;5029049;28;20639;-71
2021/03/01 02:26:45;;;;;;;12.82;5.70;;;2.10;71.90;;;;;;5026651;28;19912;-71
2021/03/01 02:29:14;;;;;;;14.98;5.72;;;2.00;72.10;;;;;;5027841;28;20033;-71
2021/03/01 02:31:44;;;;;;;15.48;5.85;;;2.00;71.90;;;;;;5028248;28;20049;-71
2021/03/01 02:34:12;;;;;;;12.40;5.97;;;2.20;71.80;;;;;;5028151;28;20037;-71
2021/03/01 02:36:47;;;;;;;16.80;6.05;;;2.30;71.10;;;;;;5026230;28;20091;-71
2021/03/01 02:39:20;;;;;;;12.93;5.70;;;2.30;71.10;;;;;;5026456;28;20031;-71
2021/03/01 02:41:47;;;;;;;18.08;7.28;;;2.30;71.50;;;;;;5027860;28;20636;-70
2021/03/01 02:44:13;;;;;;;14.30;6.47;;;2.20;71.90;;;;;;5027733;28;20060;-71
2021/03/01 02:46:40;;;;;;;15.38;7.88;;;2.10;72.10;;;;;;5026563;28;20091;-70
2021/03/01 02:49:11;;;;;;;15.27;7.55;;;2.00;72.60;;;;;;5026524;28;20040;-71
2021/03/01 02:51:40;;;;;;;14.40;6.90;;;1.90;72.80;;;;;;5027220;28;20143;-70
2021/03/01 02:54:06;;;;;;;15.77;7.53;;;1.80;73.30;;;;;;5027475;28;20124;-71
2021/03/01 02:56:32;;;;;;;;;;;1.80;73.60;;;;;;5028040;28;20100;-71
2021/03/01 02:58:58;;;;;;;12.13;6.13;;;1.80;73.50;;;;;;5025959;28;19905;-71
2021/03/01 03:01:25;;;;;;;13.63;6.38;;;1.70;74.20;;;;;;5028178;28;20362;-70
2021/03/01 03:03:53;;;;;;;16.02;7.15;;;1.70;74.20;;;;;;5027170;28;20220;-71
2021/03/01 03:06:22;;;;;;;14.23;5.85;;;1.70;74.20;;;;;;5026825;28;20099;-71
2021/03/01 03:08:49;;;;;;;13.63;6.43;;;1.70;74.10;;;;;;5027575;28;20404;-72
2021/03/01 03:11:19;;;;;;;12.75;5.72;;;1.80;73.40;;;;;;5027612;28;20495;-71
2021/03/01 03:13:47;;;;;;;14.18;6.03;;;1.90;73.10;;;;;;5027393;28;20452;-71
2021/03/01 03:16:13;;;;;;;13.52;5.93;;;2.00;72.40;;;;;;5027117;28;20482;-70
2021/03/01 03:18:42;;;;;;;15.93;6.93;;;2.00;72.30;;;;;;5027151;28;20043;-72
2021/03/01 03:21:08;;;;;;;16.35;7.00;;;2.00;72.40;;;;;;5026894;28;20649;-71
2021/03/01 03:23:33;;;;;;;14.32;6.60;;;1.90;72.60;;;;;;5026558;28;20037;-71
2021/03/01 03:25:59;;;;;;;;;;;1.80;72.70;;;;;;5027640;28;20842;-72
2021/03/01 03:28:25;;;;;;;15.10;7.28;;;1.80;73.20;;;;;;5026892;28;20444;-71
2021/03/01 03:30:51;;;;;;;16.65;6.20;;;1.70;73.60;;;;;;5027224;28;20521;-71
2021/03/01 03:33:17;;;;;;;;;;;1.60;74.00;;;;;;5027261;28;20056;-71
2021/03/01 03:35:43;;;;;;;11.20;5.57;;;1.60;74.40;;;;;;5026448;28;19963;-71
2021/03/01 03:38:24;;;;;;;;;;;1.50;74.40;;;;;;5027208;28;20444;-71
2021/03/01 03:40:59;;;;;;;20.08;8.15;;;1.50;75.00;;;;;;5026507;28;19963;-71
2021/03/01 03:43:26;;;;;;;22.02;9.35;;;1.50;75.30;;;;;;5025685;28;20067;-71
2021/03/01 03:45:55;;;;;;;18.20;8.63;;;1.40;75.70;;;;;;5026392;28;20037;-71
2021/03/01 03:48:23;;;;;;;17.98;7.80;;;1.30;75.90;;;;;;5026953;28;20036;-71
2021/03/01 03:50:55;;;;;;;17.88;7.18;;;1.30;76.30;;;;;;5026284;28;20032;-70
2021/03/01 03:53:28;;;;;;;27.00;10.20;;;1.30;76.60;;;;;;5026906;28;20041;-70
2021/03/01 03:55:57;;;;;;;15.98;5.75;;;1.40;76.40;;;;;;5026732;28;20166;-71
2021/03/01 03:58:27;;;;;;;12.30;5.38;;;1.60;75.90;;;;;;5026861;28;20061;-71
2021/03/01 04:00:56;;;;;;;11.25;5.10;;;1.90;74.70;;;;;;5026680;28;20114;-71
2021/03/01 04:03:23;;;;;;;9.73;4.78;;;2.30;73.60;;;;;;5026613;28;20079;-70
2021/03/01 04:05:51;;;;;;;18.60;5.50;;;2.60;72.50;;;;;;5025761;28;20073;-71
2021/03/01 04:08:19;;;;;;;11.23;4.68;;;2.80;71.20;;;;;;5025152;28;20026;-71
2021/03/01 04:10:49;;;;;;;8.63;4.35;;;3.10;70.20;;;;;;5026397;28;20030;-71
2021/03/01 04:13:16;;;;;;;8.40;4.53;;;3.30;69.80;;;;;;5025146;28;20124;-71
2021/03/01 04:15:46;;;;;;;10.30;5.07;;;3.40;69.20;;;;;;5026517;28;20037;-71
2021/03/01 04:18:17;;;;;;;8.48;3.33;;;3.50;68.40;;;;;;5026156;28;20375;-71
2021/03/01 04:20:44;;;;;;;10.70;4.97;;;3.60;67.90;;;;;;5024503;28;20025;-70
2021/03/01 04:23:10;;;;;;;13.05;5.80;;;3.70;67.50;;;;;;5026045;28;20430;-71
2021/03/01 04:25:36;;;;;;;;;;;3.80;67.30;;;;;;5026987;28;20502;-71
2021/03/01 04:28:02;;;;;;;15.07;5.97;;;3.80;67.30;;;;;;5025066;28;19909;-71
2021/03/01 04:30:29;;;;;;;39.08;13.07;;;3.70;67.40;;;;;;5024771;28;20072;-72
2021/03/01 04:32:56;;;;;;;27.73;10.13;;;3.60;68.00;;;;;;5024326;28;20064;-72
2021/03/01 04:35:24;;;;;;;21.55;8.65;;;3.40;68.50;;;;;;5025875;28;20021;-71
2021/03/01 04:37:50;;;;;;;16.85;7.80;;;3.20;68.80;;;;;;5030067;28;20113;-73
2021/03/01 04:40:15;;;;;;;;;;;3.00;69.40;;;;;;5031051;28;20109;-71
2021/03/01 04:42:44;;;;;;;16.52;6.97;;;2.90;70.10;;;;;;5029796;28;19921;-70
2021/03/01 04:45:11;;;;;;;23.20;11.10;;;2.80;70.40;;;;;;5028660;28;20456;-70
2021/03/01 04:47:40;;;;;;;23.65;11.48;;;2.70;71.00;;;;;;5029868;28;20123;-71
2021/03/01 04:50:06;;;;;;;25.58;11.63;;;2.60;71.20;;;;;;5029785;28;20047;-70
2021/03/01 04:52:33;;;;;;;21.23;10.07;;;2.50;71.60;;;;;;5029980;28;20040;-71
2021/03/01 04:55:05;;;;;;;21.27;10.23;;;2.50;71.90;;;;;;5028284;28;20028;-71
2021/03/01 04:57:31;;;;;;;30.73;11.85;;;2.40;72.20;;;;;;5029892;28;20093;-71
2021/03/01 05:00:01;;;;;;;23.50;11.60;;;2.30;72.60;;;;;;5029688;28;20029;-70
2021/03/01 05:02:31;;;;;;;24.88;10.98;;;2.30;72.90;;;;;;5029481;28;20061;-70
2021/03/01 05:05:00;;;;;;;34.22;14.18;;;2.30;73.10;;;;;;5029404;28;20034;-71
2021/03/01 05:07:28;;;;;;;44.42;18.27;;;2.20;73.20;;;;;;5029598;28;20147;-70
2021/03/01 05:09:55;;;;;;;75.53;35.47;;;2.20;73.60;;;;;;5028284;28;20025;-71
2021/03/01 05:12:21;;;;;;;87.10;36.67;;;2.10;73.70;;;;;;5028187;28;20068;-70
2021/03/01 05:14:46;;;;;;;;;;;2.00;73.80;;;;;;5028576;28;20069;-70
2021/03/01 05:17:12;;;;;;;44.38;21.95;;;2.00;74.30;;;;;;5029416;28;20348;-70
2021/03/01 05:19:37;;;;;;;39.65;18.15;;;2.00;74.40;;;;;;5029718;28;20087;-70
2021/03/01 05:22:03;;;;;;;;;;;1.90;74.70;;;;;;5029471;28;20056;-71
2021/03/01 05:24:29;;;;;;;38.22;17.83;;;1.80;75.10;;;;;;5029568;28;19986;-71
2021/03/01 05:26:54;;;;;;;;;;;1.80;75.10;;;;;;5029914;28;20112;-70
2021/03/01 05:29:21;;;;;;;32.08;14.25;;;1.70;75.70;;;;;;5029396;28;19940;-71
2021/03/01 05:31:46;;;;;;;;;;;1.70;75.60;;;;;;5029483;28;20075;-70
2021/03/01 05:34:12;;;;;;;31.23;12.52;;;1.70;75.90;;;;;;5029165;28;20262;-71
2021/03/01 05:36:38;;;;;;;;;;;1.60;76.20;;;;;;5029158;28;20528;-71
2021/03/01 05:39:04;;;;;;;31.40;14.80;;;1.60;76.30;;;;;;5028973;28;20011;-71
2021/03/01 05:41:31;;;;;;;32.08;14.43;;;1.60;76.60;;;;;;5029055;28;20502;-71
2021/03/01 05:43:57;;;;;;;28.67;13.20;;;1.60;76.60;;;;;;5028553;28;20103;-71
2021/03/01 05:46:23;;;;;;;;;;;1.70;76.50;;;;;;5029177;28;20033;-70
2021/03/01 05:48:49;;;;;;;51.00;18.05;;;1.70;76.90;;;;;;5027967;28;20304;-70
2021/03/01 05:51:15;;;;;;;46.17;17.55;;;1.80;76.60;;;;;;5027577;28;20077;-70
2021/03/01 05:53:42;;;;;;;38.13;17.35;;;1.90;77.10;;;;;;5027638;28;20571;-69
2021/03/01 05:56:09;;;;;;;20.95;9.15;;;2.20;75.60;;;;;;5027273;28;20079;-71
2021/03/01 05:58:35;;;;;;;16.58;6.30;;;2.40;74.60;;;;;;5028213;28;20033;-71
2021/03/01 06:01:05;;;;;;;;;;;2.60;73.50;;;;;;5029071;28;20405;-71
2021/03/01 06:03:35;;;;;;;14.63;6.93;;;2.80;72.90;;;;;;5027064;28;19931;-71
2021/03/01 06:06:02;;;;;;;22.55;11.40;;;3.00;72.50;;;;;;5028300;28;20041;-70
2021/03/01 06:08:27;;;;;;;47.13;20.85;;;3.10;72.50;;;;;;5028426;28;20101;-72
2021/03/01 06:10:57;;;;;;;;;;;3.20;72.20;;;;;;5027431;28;20120;-71
2021/03/01 06:13:24;;;;;;;30.30;13.38;;;3.30;71.20;;;;;;5028688;28;20016;-71
2021/03/01 06:15:56;;;;;;;29.17;12.82;;;3.50;71.00;;;;;;5028273;28;20030;-71
2021/03/01 06:18:22;;;;;;;34.00;14.95;;;3.60;70.50;;;;;;5029478;28;20033;-71
2021/03/01 06:20:47;;;;;;;30.08;13.85;;;3.70;70.80;;;;;;5026833;28;20529;-71
2021/03/01 06:23:28;;;;;;;;;;;3.80;70.90;;;;;;5028630;28;20033;-71
2021/03/01 06:25:53;;;;;;;28.60;12.18;;;4.10;70.70;;;;;;5027924;28;19920;-71
2021/03/01 06:28:26;;;;;;;;;;;4.70;69.10;;;;;;5027270;28;20029;-70
2021/03/01 06:30:51;;;;;;;14.48;6.72;;;5.40;67.40;;;;;;5028253;28;20385;-69
2021/03/01 06:33:18;;;;;;;;;;;6.20;65.90;;;;;;5028008;28;20180;-71
2021/03/01 06:35:45;;;;;;;11.50;5.72;;;7.10;62.30;;;;;;5026374;28;19909;-72
2021/03/01 06:38:36;;;;;;;8.50;5.15;;;7.80;60.00;;;;;;5026694;28;20033;-70
2021/03/01 06:41:19;;;;;;;8.52;4.60;;;8.80;57.50;;;;;;5028059;28;20497;-69
2021/03/01 06:44:01;;;;;;;10.20;4.55;;;9.40;55.50;;;;;;5026498;28;20128;-70
2021/03/01 06:46:29;;;;;;;13.05;5.75;;;10.10;53.10;;;;;;5027932;28;20077;-72
2021/03/01 06:48:55;;;;;;;11.60;5.25;;;10.60;52.30;;;;;;5027435;28;20036;-71
2021/03/01 06:51:21;;;;;;;13.98;6.13;;;11.00;51.10;;;;;;5027947;28;20045;-72
2021/03/01 06:53:57;;;;;;;;;;;11.50;49.40;;;;;;5028197;28;20505;-71
2021/03/01 06:56:44;;;;;;;7.97;4.55;;;11.90;48.40;;;;;;5027443;28;19955;-72
2021/03/01 06:59:14;;;;;;;9.57;5.35;;;12.50;46.70;;;;;;5026989;28;20095;-71
2021/03/01 07:01:44;;;;;;;11.05;5.82;;;12.70;45.70;;;;;;5026481;28;20040;-72
2021/03/01 07:04:18;;;;;;;12.65;4.53;;;12.80;44.90;;;;;;5027121;28;20032;-72
2021/03/01 07:06:44;;;;;;;10.57;4.00;;;12.90;44.70;;;;;;5025909;28;20033;-72
2021/03/01 07:09:12;;;;;;;;;;;13.10;44.30;;;;;;5027417;28;20040;-72
2021/03/01 07:11:38;;;;;;;7.78;3.38;;;13.20;43.90;;;;;;5027518;28;19909;-72
2021/03/01 07:14:03;;;;;;;;;;;13.40;42.80;;;;;;5026417;28;20106;-72
2021/03/01 07:16:41;;;;;;;10.00;3.45;;;13.60;41.80;;;;;;5027091;28;20455;-70
2021/03/01 07:19:12;;;;;;;5.85;3.30;;;13.50;43.70;;;;;;5026965;28;20029;-71
2021/03/01 07:21:39;;;;;;;5.95;3.38;;;13.60;41.80;;;;;;5025636;28;20037;-71
2021/03/01 07:24:06;;;;;;;8.50;3.33;;;14.00;40.20;;;;;;5025632;28;20029;-73
2021/03/01 07:26:31;;;;;;;7.53;3.17;;;13.80;41.10;;;;;;5026994;28;20068;-72
2021/03/01 07:29:16;;;;;;;;;;;14.10;39.90;;;;;;5027215;28;20056;-72
2021/03/01 07:31:47;;;;;;;7.65;3.35;;;14.20;39.50;;;;;;5026647;28;19928;-72
2021/03/01 07:34:15;;;;;;;8.07;4.10;;;14.10;40.40;;;;;;5026866;28;20091;-72
2021/03/01 07:36:41;;;;;;;13.35;3.40;;;14.10;40.70;;;;;;5024958;28;20028;-73
2021/03/01 07:39:07;;;;;;;;;;;14.40;40.30;;;;;;5025944;28;20041;-73
2021/03/01 07:41:33;;;;;;;6.60;3.60;;;15.20;39.40;;;;;;5026826;28;19913;-72
2021/03/01 07:44:00;;;;;;;7.47;3.08;;;16.00;35.20;;;;;;5024733;28;20057;-72
2021/03/01 07:46:31;;;;;;;5.20;2.40;;;16.10;35.80;;;;;;5025166;28;20045;-74
2021/03/01 07:48:58;;;;;;;5.15;2.85;;;16.30;34.20;;;;;;5026740;28;20046;-73
2021/03/01 07:51:39;;;;;;;;;;;16.30;33.90;;;;;;5025764;28;20030;-73
2021/03/01 07:54:04;;;;;;;5.28;2.53;;;15.70;35.00;;;;;;5025425;28;19905;-72
2021/03/01 07:56:30;;;;;;;;;;;15.50;35.20;;;;;;5026840;28;20036;-73
2021/03/01 07:58:57;;;;;;;6.07;3.33;;;14.70;36.90;;;;;;5025154;28;19909;-73
2021/03/01 08:01:22;;;;;;;6.05;2.75;;;14.40;39.60;;;;;;5026099;28;20566;-73
2021/03/01 08:03:48;;;;;;;;;;;14.30;39.10;;;;;;5026918;28;20108;-72
2021/03/01 08:06:14;;;;;;;5.80;3.08;;;14.40;38.70;;;;;;5026248;28;20279;-72
2021/03/01 08:08:43;;;;;;;;;;;14.40;38.80;;;;;;5025301;28;20119;-72
2021/03/01 08:11:10;;;;;;;5.38;2.65;;;14.60;37.80;;;;;;5026299;28;19909;-72
2021/03/01 08:13:36;;;;;;;6.65;2.63;;;14.50;37.40;;;;;;5026509;28;20029;-72
2021/03/01 08:16:17;;;;;;;;;;;14.40;38.90;;;;;;5026825;28;20040;-72
2021/03/01 08:18:53;;;;;;;4.18;2.03;;;14.60;38.40;;;;;;5024549;28;20301;-72
2021/03/01 08:21:20;;;;;;;4.00;1.80;;;15.20;36.90;;;;;;5026462;28;20041;-72
2021/03/01 08:23:49;;;;;;;3.00;1.38;;;15.50;35.80;;;;;;5025857;28;20064;-72
2021/03/01 08:26:32;;;;;;;5.10;1.13;;;15.40;35.40;;;;;;5026326;28;20045;-73
2021/03/01 08:29:13;;;;;;;6.15;1.50;;;15.30;34.80;;;;;;5026464;28;20031;-72
2021/03/01 08:31:40;;;;;;;3.08;1.45;;;15.50;34.90;;;;;;5025650;28;20038;-72
2021/03/01 08:34:23;;;;;;;3.20;1.25;;;15.40;34.50;;;;;;5025050;28;20517;-72
2021/03/01 08:36:49;;;;;;;3.40;1.10;;;15.40;34.30;;;;;;5025802;28;20489;-71
2021/03/01 08:39:15;;;;;;;;;;;15.20;35.00;;;;;;5026581;28;20068;-72
2021/03/01 08:41:43;;;;;;;2.65;1.00;;;15.20;34.60;;;;;;5025879;28;19915;-73
2021/03/01 08:44:21;;;;;;;3.83;1.30;;;15.20;34.30;;;;;;5026269;28;20092;-72
2021/03/01 08:46:48;;;;;;;14.82;1.65;;;15.00;34.70;;;;;;5025634;28;20072;-72
2021/03/01 08:49:25;;;;;;;4.18;1.20;;;14.80;34.70;;;;;;5026011;28;20083;-73
2021/03/01 08:51:51;;;;;;;2.88;1.05;;;15.00;34.90;;;;;;5026296;28;20030;-72
2021/03/01 08:54:29;;;;;;;;;;;15.20;35.10;;;;;;5026220;28;20033;-70
2021/03/01 08:57:06;;;;;;;3.20;1.13;;;15.50;33.50;;;;;;5024663;28;20312;-71
2021/03/01 08:59:32;;;;;;;;;;;15.30;34.40;;;;;;5025107;28;20120;-70
2021/03/01 09:01:57;;;;;;;4.35;1.17;;;15.50;33.60;;;;;;5024404;28;19999;-72
2021/03/01 09:04:23;;;;;;;5.40;1.05;;;15.50;33.80;;;;;;5025990;28;20030;-71
2021/03/01 09:06:49;;;;;;;3.35;1.40;;;15.40;34.30;;;;;;5023978;28;20114;-72
2021/03/01 09:09:14;;;;;;;2.22;1.20;;;15.40;34.50;;;;;;5024271;28;20025;-72
2021/03/01 09:11:40;;;;;;;2.67;1.10;;;15.40;34.60;;;;;;5024508;28;20044;-71
2021/03/01 09:14:07;;;;;;;;;;;15.40;35.20;;;;;;5024728;28;20082;-70
2021/03/01 09:16:40;;;;;;;3.25;1.10;;;15.70;33.50;;;;;;5024629;28;19909;-70
2021/03/01 09:19:10;;;;;;;3.53;0.90;;;15.70;33.50;;;;;;5023942;28;20120;-69
2021/03/01 09:21:40;;;;;;;3.47;1.17;;;15.90;33.60;;;;;;5024827;28;20021;-71
2021/03/01 09:24:07;;;;;;;2.28;1.00;;;16.10;33.20;;;;;;5028002;28;20033;-70
2021/03/01 09:26:38;;;;;;;3.28;1.02;;;16.30;32.00;;;;;;5029419;28;20124;-69
2021/03/01 09:29:06;;;;;;;2.75;1.45;;;16.30;31.70;;;;;;5028422;28;20458;-72
2021/03/01 09:31:53;;;;;;;2.92;1.40;;;16.20;32.60;;;;;;5028931;28;20596;-71
2021/03/01 09:34:21;;;;;;;;;;;15.90;33.10;;;;;;5029352;28;20026;-71
2021/03/01 09:36:48;;;;;;;4.18;1.73;;;15.40;33.50;;;;;;5027473;28;19912;-71
2021/03/01 09:39:25;;;;;;;11.23;6.57;;;14.40;36.30;;;;;;5028132;28;20325;-73
2021/03/01 09:41:53;;;;;;;17.33;8.23;;;13.30;42.60;;;;;;5027659;28;20028;-72
2021/03/01 09:44:31;;;;;;;15.43;9.40;;;12.60;46.40;;;;;;5029153;28;20461;-72
2021/03/01 09:46:58;;;;;;;13.52;7.80;;;12.40;48.10;;;;;;5028280;28;20096;-72
2021/03/01 09:49:27;;;;;;;18.63;8.15;;;13.20;47.10;;;;;;5028650;28;20452;-70
2021/03/01 09:51:53;;;;;;;18.27;7.32;;;14.00;44.30;;;;;;5029890;28;20474;-76
2021/03/01 09:54:21;;;;;;;;;;;14.10;42.80;;;;;;5036500;28;20128;-73
2021/03/01 09:56:58;;;;;;;14.68;8.52;;;13.70;43.40;;;;;;5028302;28;19951;-72
2021/03/01 09:59:39;;;;;;;15.25;9.00;;;13.20;45.10;;;;;;5027053;28;20119;-73
2021/03/01 10:02:25;;;;;;;15.32;8.20;;;13.10;46.30;;;;;;5028001;28;20033;-72
2021/03/01 10:05:07;;;;;;;21.13;8.13;;;13.50;45.90;;;;;;5027581;28;20048;-71
2021/03/01 10:07:33;;;;;;;17.45;7.32;;;13.60;44.60;;;;;;5028526;28;20498;-69
2021/03/01 10:10:10;;;;;;;;;;;13.40;45.10;;;;;;5029157;28;20040;-70
2021/03/01 10:12:43;;;;;;;11.35;6.70;;;13.80;44.30;;;;;;5028467;28;19909;-71
2021/03/01 10:15:10;;;;;;;14.90;7.38;;;14.80;42.30;;;;;;5027976;28;20026;-73
2021/03/01 10:17:35;;;;;;;11.27;7.07;;;15.60;41.60;;;;;;5027095;28;20502;-74
2021/03/01 10:20:07;;;;;;;12.00;7.32;;;16.20;40.10;;;;;;5027120;28;20113;-73
2021/03/01 10:22:59;;;;;;;11.35;6.93;;;16.90;38.90;;;;;;5028071;28;20104;-72
2021/03/01 10:25:42;;;;;;;14.90;8.13;;;17.70;38.00;;;;;;5026857;28;20037;-71
2021/03/01 10:28:29;;;;;;;19.08;7.50;;;17.70;35.30;;;;;;5026929;28;20087;-71
2021/03/01 10:31:08;;;;;;;11.85;6.57;;;17.60;36.50;;;;;;5026410;28;20026;-71
2021/03/01 10:34:03;;;;;;;14.90;8.00;;;17.90;36.40;;;;;;5026744;28;20080;-73
2021/03/01 10:36:48;;;;;;;15.30;8.15;;;18.00;35.50;;;;;;5027063;28;20127;-71
2021/03/01 10:39:29;;;;;;;13.88;7.93;;;17.10;36.30;;;;;;5028146;28;20497;-71
2021/03/01 10:42:02;;;;;;;14.77;8.82;;;16.20;38.20;;;;;;5026560;28;20075;-74
2021/03/01 10:44:35;;;;;;;12.00;7.85;;;15.50;38.80;;;;;;5026650;28;20041;-73
2021/03/01 10:47:21;;;;;;;12.18;7.75;;;14.90;41.20;;;;;;5026495;28;20056;-70
2021/03/01 10:49:58;;;;;;;14.98;8.27;;;14.60;41.90;;;;;;5027594;28;20033;-70
2021/03/01 10:52:25;;;;;;;15.05;7.82;;;14.20;43.40;;;;;;5027561;28;20469;-71
2021/03/01 10:54:55;;;;;;;12.60;8.32;;;13.80;44.60;;;;;;5026269;28;20560;-72
2021/03/01 10:57:25;;;;;;;12.98;7.85;;;13.30;45.90;;;;;;5027647;28;20057;-72
2021/03/01 10:59:55;;;;;;;13.23;8.23;;;13.10;47.30;;;;;;5026493;28;20112;-73
2021/03/01 11:02:22;;;;;;;13.10;7.28;;;13.10;48.10;;;;;;5025937;28;20168;-71
2021/03/01 11:04:48;;;;;;;15.48;8.27;;;13.00;48.00;;;;;;5026197;28;20037;-73
2021/03/01 11:07:15;;;;;;;16.05;7.97;;;12.70;49.20;;;;;;5026419;28;20029;-72
2021/03/01 11:09:40;;;;;;;16.92;8.40;;;12.60;49.60;;;;;;5026818;28;20090;-73
2021/03/01 11:12:06;;;;;;;;;;;12.60;50.40;;;;;;5026317;28;20558;-72
2021/03/01 11:14:32;;;;;;;15.32;7.55;;;12.70;51.20;;;;;;5027043;28;19909;-73
2021/03/01 11:16:59;;;;;;;15.27;7.65;;;12.80;50.80;;;;;;5027087;28;20501;-73
2021/03/01 11:19:25;;;;;;;;;;;12.80;50.90;;;;;;5027537;28;20076;-73
2021/03/01 11:21:51;;;;;;;13.10;6.90;;;12.80;51.20;;;;;;5026783;28;19909;-72
2021/03/01 11:24:21;;;;;;;11.57;7.03;;;12.70;51.30;;;;;;5027301;28;20048;-73
2021/03/01 11:26:48;;;;;;;13.80;8.23;;;12.80;51.10;;;;;;5026891;28;20469;-73
2021/03/01 11:29:14;;;;;;;13.52;7.10;;;12.80;51.70;;;;;;5025094;28;20022;-72
2021/03/01 11:31:40;;;;;;;13.40;7.25;;;12.80;52.00;;;;;;5027003;28;20033;-72
2021/03/01 11:34:06;;;;;;;;;;;12.80;51.80;;;;;;5027683;28;20037;-71
2021/03/01 11:36:36;;;;;;;11.93;7.35;;;12.70;52.20;;;;;;5025338;28;19954;-74
2021/03/01 11:39:02;;;;;;;11.65;7.05;;;12.70;51.90;;;;;;5025155;28;20021;-72
2021/03/01 11:41:28;;;;;;;10.60;7.32;;;12.60;52.00;;;;;;5027308;28;20037;-73
2021/03/01 11:43:54;;;;;;;;;;;12.50;51.90;;;;;;5025553;28;20056;-72
2021/03/01 11:46:20;;;;;;;15.63;6.78;;;12.50;52.20;;;;;;5026066;28;19955;-73
2021/03/01 11:48:45;;;;;;;;;;;12.50;52.70;;;;;;5027316;28;20748;-73
2021/03/01 11:51:11;;;;;;;11.18;6.60;;;12.60;52.90;;;;;;5025821;28;19909;-72
2021/03/01 11:53:38;;;;;;;;;;;12.70;52.60;;;;;;5025895;28;20486;-73
2021/03/01 11:56:04;;;;;;;10.02;5.68;;;12.80;52.10;;;;;;5026466;28;19931;-72
2021/03/01 11:58:29;;;;;;;;;;;12.70;52.00;;;;;;5026808;28;20151;-72
2021/03/01 12:00:55;;;;;;;13.32;6.75;;;12.70;52.20;;;;;;5024847;28;20682;-73
2021/03/01 12:03:21;;;;;;;;;;;12.70;51.40;;;;;;5025699;28;20098;-73
2021/03/01 12:05:46;;;;;;;11.25;6.00;;;12.60;51.20;;;;;;5026356;28;19917;-74
2021/03/01 12:08:12;;;;;;;;;;;12.50;50.60;;;;;;5026885;28;20036;-73
2021/03/01 12:10:38;;;;;;;11.57;5.35;;;12.50;51.20;;;;;;5024995;28;20372;-73
2021/03/01 12:13:04;;;;;;;;;;;12.50;51.30;;;;;;5026535;28;20017;-73
2021/03/01 12:15:30;;;;;;;9.50;5.75;;;12.50;50.90;;;;;;5025938;28;20010;-72
2021/03/01 12:17:56;;;;;;;;;;;12.60;51.10;;;;;;5026821;28;20434;-73
2021/03/01 12:20:21;;;;;;;9.70;5.85;;;12.70;50.90;;;;;;5025183;28;19909;-72
2021/03/01 12:22:47;;;;;;;;;;;12.70;50.50;;;;;;5026828;28;20501;-72
2021/03/01 12:25:12;;;;;;;13.82;9.00;;;12.70;50.80;;;;;;5026290;28;19924;-72
2021/03/01 12:27:38;;;;;;;;;;;12.60;50.60;;;;;;5024976;28;20110;-71
2021/03/01 12:30:05;;;;;;;13.00;6.10;;;12.60;50.60;;;;;;5024739;28;19905;-70
2021/03/01 12:32:31;;;;;;;11.90;5.63;;;12.60;50.90;;;;;;5025440;28;20530;-71
2021/03/01 12:34:58;;;;;;;;;;;12.60;50.70;;;;;;5025602;28;20124;-72
2021/03/01 12:37:24;;;;;;;;;;;12.60;50.40;;;;;;5026258;28;20372;-71
2021/03/01 12:39:49;;;;;;;8.60;4.28;;;12.70;49.60;;;;;;5026054;28;19916;-71
2021/03/01 12:42:15;;;;;;;;;;;12.70;48.30;;;;;;5026612;28;20048;-71
2021/03/01 12:44:41;;;;;;;6.57;3.55;;;12.80;47.70;;;;;;5025771;28;19967;-71
2021/03/01 12:47:06;;;;;;;;;;;12.80;47.60;;;;;;5026006;28;20045;-71
2021/03/01 12:49:32;;;;;;;18.58;4.28;;;12.90;47.50;;;;;;5026190;28;20412;-71
2021/03/01 12:51:58;;;;;;;;;;;13.00;48.10;;;;;;5024871;28;20366;-69
2021/03/01 12:54:24;;;;;;;9.80;3.72;;;13.00;47.00;;;;;;5025944;28;19920;-72
2021/03/01 12:56:49;;;;;;;;;;;12.90;47.30;;;;;;5026855;28;20041;-71
2021/03/01 12:59:15;;;;;;;6.53;3.85;;;12.90;46.50;;;;;;5029737;28;19987;-72
2021/03/01 13:01:41;;;;;;;;;;;12.90;46.60;;;;;;5029952;28;20029;-71
2021/03/01 13:04:07;;;;;;;11.38;6.80;;;12.80;47.30;;;;;;5029842;28;19920;-71
2021/03/01 13:06:32;;;;;;;;;;;12.70;47.30;;;;;;5028293;28;20041;-71
2021/03/01 13:08:58;;;;;;;12.27;5.43;;;12.80;47.30;;;;;;5028134;28;19916;-71
2021/03/01 13:11:23;;;;;;;;;;;12.70;47.00;;;;;;5037089;28;20494;-71
2021/03/01 13:13:49;;;;;;;8.52;5.47;;;12.70;47.60;;;;;;5044037;28;20001;-71